createdAt,value
2018-12-30T00:00:51.180Z,1024.26
2018-12-30T00:01:51.170Z,1024.30
2018-12-30T00:02:51.234Z,1024.30
2018-12-30T00:03:51.215Z,1024.30
2018-12-30T00:04:51.137Z,1024.36
2018-12-30T00:05:51.125Z,1024.37
2018-12-30T00:06:51.115Z,1024.42
2018-12-30T00:07:51.106Z,1024.41
2018-12-30T00:08:51.100Z,1024.46
2018-12-30T00:09:51.091Z,1024.47
2018-12-30T00:10:51.081Z,1024.54
2018-12-30T00:11:51.069Z,1024.45
2018-12-30T00:12:51.054Z,1024.48
2018-12-30T00:13:51.045Z,1024.56
2018-12-30T00:14:51.040Z,1024.52
2018-12-30T00:15:51.039Z,1024.55
2018-12-30T00:16:51.069Z,1024.53
2018-12-30T00:17:51.013Z,1024.58
2018-12-30T00:18:51.005Z,1024.62
2018-12-30T00:19:50.985Z,1024.66
2018-12-30T00:20:50.981Z,1024.63
2018-12-30T00:21:50.970Z,1024.64
2018-12-30T00:22:50.960Z,1024.72
2018-12-30T00:23:50.950Z,1024.70
2018-12-30T00:24:50.937Z,1024.73
2018-12-30T00:25:50.924Z,1024.60
2018-12-30T00:26:50.915Z,1024.60
2018-12-30T00:27:50.905Z,1024.67
2018-12-30T00:28:50.899Z,1024.64
2018-12-30T00:29:50.891Z,1024.65
2018-12-30T00:30:50.876Z,1024.71
2018-12-30T00:31:50.864Z,1024.66
2018-12-30T00:32:50.860Z,1024.76
2018-12-30T00:33:50.849Z,1024.90
2018-12-30T00:34:50.839Z,1024.89
2018-12-30T00:35:50.830Z,1024.88
2018-12-30T00:36:50.816Z,1024.92
2018-12-30T00:37:50.804Z,1024.88
2018-12-30T00:38:50.795Z,1024.98
2018-12-30T00:39:50.786Z,1025.00
2018-12-30T00:40:50.783Z,1024.99
2018-12-30T00:41:50.771Z,1025.02
2018-12-30T00:42:50.758Z,1025.08
2018-12-30T00:43:50.750Z,1025.06
2018-12-30T00:44:50.733Z,1025.17
2018-12-30T00:45:50.725Z,1025.15
2018-12-30T00:46:50.719Z,1025.16
2018-12-30T00:47:50.709Z,1025.16
2018-12-30T00:48:50.694Z,1025.15
2018-12-30T00:49:50.688Z,1025.17
2018-12-30T00:50:50.673Z,1025.17
2018-12-30T00:51:50.672Z,1025.21
2018-12-30T00:52:50.659Z,1025.23
2018-12-30T00:53:50.649Z,1025.32
2018-12-30T00:54:50.639Z,1025.31
2018-12-30T00:55:50.630Z,1025.22
2018-12-30T00:56:50.613Z,1025.29
2018-12-30T00:57:50.608Z,1025.30
2018-12-30T00:58:50.594Z,1025.25
2018-12-30T00:59:50.583Z,1025.30
2018-12-30T01:00:50.577Z,1025.33
2018-12-30T01:01:50.567Z,1025.25
2018-12-30T01:02:50.554Z,1025.30
2018-12-30T01:03:50.545Z,1025.38
2018-12-30T01:04:50.537Z,1025.36
2018-12-30T01:05:50.527Z,1025.34
2018-12-30T01:06:50.518Z,1025.48
2018-12-30T01:07:50.509Z,1025.49
2018-12-30T01:08:50.494Z,1025.52
2018-12-30T01:09:50.483Z,1025.52
2018-12-30T01:10:50.472Z,1025.55
2018-12-30T01:11:50.464Z,1025.48
2018-12-30T01:12:50.459Z,1025.55
2018-12-30T01:13:50.447Z,1025.54
2018-12-30T01:14:50.437Z,1025.48
2018-12-30T01:15:50.427Z,1025.52
2018-12-30T01:16:50.412Z,1025.54
2018-12-30T01:17:50.406Z,1025.48
2018-12-30T01:18:50.395Z,1025.54
2018-12-30T01:19:50.388Z,1025.53
2018-12-30T01:20:50.458Z,1025.50
2018-12-30T01:21:50.361Z,1025.54
2018-12-30T01:22:50.351Z,1025.57
2018-12-30T01:23:50.342Z,1025.58
2018-12-30T01:24:50.335Z,1025.53
2018-12-30T01:25:50.326Z,1025.52
2018-12-30T01:26:50.315Z,1025.58
2018-12-30T01:27:50.305Z,1025.71
2018-12-30T01:28:50.290Z,1025.69
2018-12-30T01:29:50.279Z,1025.69
2018-12-30T01:30:50.270Z,1025.75
2018-12-30T01:31:50.261Z,1025.75
2018-12-30T01:32:50.254Z,1025.71
2018-12-30T01:33:50.246Z,1025.77
2018-12-30T01:34:50.230Z,1025.75
2018-12-30T01:35:50.220Z,1025.71
2018-12-30T01:36:50.214Z,1025.79
2018-12-30T01:37:50.206Z,1025.78
2018-12-30T01:38:50.193Z,1025.72
2018-12-30T01:39:50.183Z,1025.71
2018-12-30T01:40:50.169Z,1025.66
2018-12-30T01:41:50.158Z,1025.68
2018-12-30T01:42:50.149Z,1025.71
2018-12-30T01:43:50.138Z,1025.72
2018-12-30T01:44:50.132Z,1025.77
2018-12-30T01:45:50.121Z,1025.73
2018-12-30T01:46:50.112Z,1025.73
2018-12-30T01:47:50.103Z,1025.73
2018-12-30T01:48:50.087Z,1025.79
2018-12-30T01:49:50.077Z,1025.85
2018-12-30T01:50:50.073Z,1025.86
2018-12-30T01:51:50.063Z,1025.86
2018-12-30T01:52:50.047Z,1025.87
2018-12-30T01:53:50.042Z,1025.95
2018-12-30T01:54:50.026Z,1025.98
2018-12-30T01:55:50.017Z,1025.98
2018-12-30T01:56:50.010Z,1025.94
2018-12-30T01:57:50.001Z,1026.00
2018-12-30T01:58:49.990Z,1026.08
2018-12-30T01:59:49.981Z,1026.03
2018-12-30T02:00:49.965Z,1026.05
2018-12-30T02:01:49.957Z,1026.03
2018-12-30T02:02:49.945Z,1026.03
2018-12-30T02:03:49.936Z,1026.05
2018-12-30T02:04:49.931Z,1026.10
2018-12-30T02:05:49.920Z,1026.07
2018-12-30T02:06:49.905Z,1026.03
2018-12-30T02:07:49.895Z,1026.06
2018-12-30T02:08:49.890Z,1026.06
2018-12-30T02:09:49.880Z,1026.07
2018-12-30T02:10:49.868Z,1026.11
2018-12-30T02:11:49.860Z,1026.15
2018-12-30T02:12:49.846Z,1026.12
2018-12-30T02:13:49.835Z,1026.12
2018-12-30T02:14:49.824Z,1026.15
2018-12-30T02:15:49.814Z,1026.16
2018-12-30T02:16:49.807Z,1026.23
2018-12-30T02:17:49.799Z,1026.31
2018-12-30T02:18:49.789Z,1026.41
2018-12-30T02:19:49.778Z,1026.44
2018-12-30T02:20:49.807Z,1026.54
2018-12-30T02:21:49.755Z,1026.41
2018-12-30T02:22:49.748Z,1026.39
2018-12-30T02:23:49.747Z,1026.32
2018-12-30T02:24:49.723Z,1026.27
2018-12-30T02:25:49.713Z,1026.37
2018-12-30T02:26:49.703Z,1026.49
2018-12-30T02:27:49.692Z,1026.47
2018-12-30T02:28:49.686Z,1026.55
2018-12-30T02:29:49.677Z,1026.46
2018-12-30T02:30:49.663Z,1026.45
2018-12-30T02:31:49.654Z,1026.36
2018-12-30T02:32:49.647Z,1026.30
2018-12-30T02:33:49.637Z,1026.50
2018-12-30T02:34:49.625Z,1026.53
2018-12-30T02:35:49.621Z,1026.70
2018-12-30T02:36:49.602Z,1026.63
2018-12-30T02:37:49.591Z,1026.49
2018-12-30T02:38:49.585Z,1026.57
2018-12-30T02:39:49.575Z,1026.58
2018-12-30T02:40:49.562Z,1026.56
2018-12-30T02:41:49.554Z,1026.53
2018-12-30T02:42:49.543Z,1026.49
2018-12-30T02:43:49.532Z,1026.49
2018-12-30T02:44:49.525Z,1026.41
2018-12-30T02:45:49.515Z,1026.42
2018-12-30T02:46:49.506Z,1026.46
2018-12-30T02:47:49.496Z,1026.46
2018-12-30T02:48:49.484Z,1026.47
2018-12-30T02:49:49.471Z,1026.45
2018-12-30T02:50:49.461Z,1026.37
2018-12-30T02:51:50.350Z,1026.36
2018-12-30T02:52:49.445Z,1026.28
2018-12-30T02:53:49.441Z,1026.27
2018-12-30T02:54:49.420Z,1026.34
2018-12-30T02:55:49.411Z,1026.43
2018-12-30T02:56:49.403Z,1026.45
2018-12-30T02:57:49.393Z,1026.46
2018-12-30T02:58:49.387Z,1026.50
2018-12-30T02:59:49.377Z,1026.63
2018-12-30T03:00:49.360Z,1026.67
2018-12-30T03:01:49.359Z,1026.67
2018-12-30T03:02:49.341Z,1026.66
2018-12-30T03:03:49.331Z,1026.69
2018-12-30T03:04:49.324Z,1026.78
2018-12-30T03:05:49.315Z,1026.78
2018-12-30T03:06:49.305Z,1026.72
2018-12-30T03:07:49.296Z,1026.70
2018-12-30T03:08:49.279Z,1026.67
2018-12-30T03:09:49.269Z,1026.67
2018-12-30T03:10:49.265Z,1026.71
2018-12-30T03:11:49.255Z,1026.76
2018-12-30T03:12:49.241Z,1026.79
2018-12-30T03:13:49.229Z,1026.77
2018-12-30T03:14:49.220Z,1026.78
2018-12-30T03:15:49.213Z,1026.64
2018-12-30T03:16:49.206Z,1026.54
2018-12-30T03:17:49.196Z,1026.50
2018-12-30T03:18:49.187Z,1026.57
2018-12-30T03:19:49.176Z,1026.51
2018-12-30T03:20:49.160Z,1026.55
2018-12-30T03:21:49.151Z,1026.57
2018-12-30T03:22:49.140Z,1026.51
2018-12-30T03:23:49.131Z,1026.52
2018-12-30T03:24:49.126Z,1026.58
2018-12-30T03:25:49.114Z,1026.53
2018-12-30T03:26:49.101Z,1026.51
2018-12-30T03:27:49.093Z,1026.42
2018-12-30T03:28:49.085Z,1026.34
2018-12-30T03:29:49.076Z,1026.26
2018-12-30T03:30:49.068Z,1026.33
2018-12-30T03:31:49.058Z,1026.36
2018-12-30T03:32:49.041Z,1026.40
2018-12-30T03:33:49.032Z,1026.47
2018-12-30T03:34:49.021Z,1026.63
2018-12-30T03:35:49.012Z,1026.65
2018-12-30T03:36:49.005Z,1026.64
2018-12-30T03:37:48.996Z,1026.66
2018-12-30T03:38:48.996Z,1026.64
2018-12-30T03:39:48.978Z,1026.65
2018-12-30T03:40:48.962Z,1026.68
2018-12-30T03:41:48.951Z,1026.65
2018-12-30T03:42:48.946Z,1026.70
2018-12-30T03:43:48.937Z,1026.74
2018-12-30T03:44:48.924Z,1026.77
2018-12-30T03:45:48.910Z,1026.82
2018-12-30T03:46:48.900Z,1026.80
2018-12-30T03:47:48.891Z,1026.75
2018-12-30T03:48:48.884Z,1026.76
2018-12-30T03:49:48.875Z,1026.69
2018-12-30T03:50:48.865Z,1026.69
2018-12-30T03:51:48.856Z,1026.65
2018-12-30T03:52:48.840Z,1026.70
2018-12-30T03:53:48.831Z,1026.78
2018-12-30T03:54:48.822Z,1026.79
2018-12-30T03:55:48.812Z,1026.82
2018-12-30T03:56:48.873Z,1026.80
2018-12-30T03:57:48.796Z,1026.83
2018-12-30T03:58:48.782Z,1026.89
2018-12-30T03:59:48.772Z,1026.91
2018-12-30T04:00:48.766Z,1026.94
2018-12-30T04:01:48.850Z,1026.91
2018-12-30T04:02:48.746Z,1026.96
2018-12-30T04:03:48.739Z,1026.92
2018-12-30T04:04:48.721Z,1026.91
2018-12-30T04:05:48.710Z,1026.88
2018-12-30T04:06:48.701Z,1026.90
2018-12-30T04:07:48.692Z,1026.86
2018-12-30T04:08:48.693Z,1026.91
2018-12-30T04:09:48.676Z,1026.92
2018-12-30T04:10:48.667Z,1026.97
2018-12-30T04:11:48.658Z,1026.91
2018-12-30T04:12:48.642Z,1026.90
2018-12-30T04:13:48.635Z,1026.91
2018-12-30T04:14:48.700Z,1026.80
2018-12-30T04:15:48.617Z,1026.75
2018-12-30T04:16:48.603Z,1026.75
2018-12-30T04:17:48.592Z,1026.88
2018-12-30T04:18:48.586Z,1026.89
2018-12-30T04:19:48.573Z,1026.81
2018-12-30T04:20:48.566Z,1026.82
2018-12-30T04:21:48.555Z,1026.74
2018-12-30T04:22:48.548Z,1026.75
2018-12-30T04:23:48.537Z,1026.74
2018-12-30T04:24:48.525Z,1026.80
2018-12-30T04:25:48.513Z,1026.86
2018-12-30T04:26:48.510Z,1026.87
2018-12-30T04:27:48.494Z,1026.90
2018-12-30T04:28:48.504Z,1026.87
2018-12-30T04:29:48.482Z,1026.89
2018-12-30T04:30:48.461Z,1026.92
2018-12-30T04:31:48.453Z,1026.91
2018-12-30T04:32:48.448Z,1026.90
2018-12-30T04:33:48.436Z,1026.93
2018-12-30T04:34:48.429Z,1026.94
2018-12-30T04:35:48.417Z,1026.92
2018-12-30T04:36:48.402Z,1027.03
2018-12-30T04:37:48.392Z,1027.05
2018-12-30T04:38:48.382Z,1027.10
2018-12-30T04:39:48.375Z,1027.07
2018-12-30T04:40:48.367Z,1027.08
2018-12-30T04:41:48.357Z,1027.10
2018-12-30T04:42:48.348Z,1027.16
2018-12-30T04:43:48.338Z,1027.18
2018-12-30T04:44:48.321Z,1027.14
2018-12-30T04:45:48.315Z,1027.09
2018-12-30T04:46:48.307Z,1027.06
2018-12-30T04:47:48.299Z,1027.10
2018-12-30T04:48:48.281Z,1027.11
2018-12-30T04:49:48.273Z,1027.15
2018-12-30T04:50:48.263Z,1027.19
2018-12-30T04:51:48.252Z,1027.26
2018-12-30T04:52:48.246Z,1027.18
2018-12-30T04:53:48.238Z,1027.27
2018-12-30T04:54:48.227Z,1027.25
2018-12-30T04:55:48.217Z,1027.28
2018-12-30T04:56:48.202Z,1027.32
2018-12-30T04:57:48.192Z,1027.26
2018-12-30T04:58:48.182Z,1027.16
2018-12-30T04:59:48.171Z,1027.14
2018-12-30T05:00:48.166Z,1027.06
2018-12-30T05:01:48.160Z,1027.16
2018-12-30T05:02:48.142Z,1027.12
2018-12-30T05:03:48.132Z,1027.04
2018-12-30T05:04:48.128Z,1027.08
2018-12-30T05:05:48.117Z,1027.31
2018-12-30T05:06:48.107Z,1027.41
2018-12-30T05:07:48.097Z,1027.37
2018-12-30T05:08:48.081Z,1027.24
2018-12-30T05:09:48.072Z,1027.21
2018-12-30T05:10:48.062Z,1027.27
2018-12-30T05:11:48.053Z,1027.36
2018-12-30T05:12:48.047Z,1027.42
2018-12-30T05:13:48.037Z,1027.40
2018-12-30T05:14:48.025Z,1027.42
2018-12-30T05:15:48.016Z,1027.44
2018-12-30T05:16:48.017Z,1027.50
2018-12-30T05:17:47.996Z,1027.53
2018-12-30T05:18:48.000Z,1027.64
2018-12-30T05:19:47.977Z,1027.66
2018-12-30T05:20:47.962Z,1027.55
2018-12-30T05:21:47.951Z,1027.37
2018-12-30T05:22:47.941Z,1027.34
2018-12-30T05:23:47.933Z,1027.18
2018-12-30T05:24:47.926Z,1027.10
2018-12-30T05:25:47.917Z,1027.11
2018-12-30T05:26:47.906Z,1027.09
2018-12-30T05:27:47.896Z,1027.08
2018-12-30T05:28:47.881Z,1027.07
2018-12-30T05:29:47.870Z,1027.11
2018-12-30T05:30:47.861Z,1027.15
2018-12-30T05:31:47.853Z,1027.29
2018-12-30T05:32:47.857Z,1027.39
2018-12-30T05:33:47.834Z,1027.42
2018-12-30T05:34:47.820Z,1027.45
2018-12-30T05:35:47.813Z,1027.43
2018-12-30T05:36:47.805Z,1027.42
2018-12-30T05:37:47.794Z,1027.46
2018-12-30T05:38:47.786Z,1027.46
2018-12-30T05:39:47.775Z,1027.43
2018-12-30T05:40:47.760Z,1027.36
2018-12-30T05:41:47.752Z,1027.28
2018-12-30T05:42:47.741Z,1027.37
2018-12-30T05:43:47.730Z,1027.42
2018-12-30T05:44:47.723Z,1027.43
2018-12-30T05:45:47.720Z,1027.36
2018-12-30T05:46:47.704Z,1027.25
2018-12-30T05:47:47.695Z,1027.21
2018-12-30T05:48:47.679Z,1027.36
2018-12-30T05:49:47.669Z,1027.55
2018-12-30T05:50:47.665Z,1027.61
2018-12-30T05:51:47.655Z,1027.55
2018-12-30T05:52:47.638Z,1027.50
2018-12-30T05:53:47.630Z,1027.50
2018-12-30T05:54:47.618Z,1027.51
2018-12-30T05:55:47.609Z,1027.52
2018-12-30T05:56:47.603Z,1027.53
2018-12-30T05:57:47.593Z,1027.42
2018-12-30T05:58:47.583Z,1027.36
2018-12-30T05:59:47.573Z,1027.41
2018-12-30T06:00:47.557Z,1027.53
2018-12-30T06:01:47.547Z,1027.51
2018-12-30T06:02:47.537Z,1027.49
2018-12-30T06:03:47.527Z,1027.52
2018-12-30T06:04:47.522Z,1027.62
2018-12-30T06:05:47.512Z,1027.65
2018-12-30T06:06:47.497Z,1027.68
2018-12-30T06:07:47.488Z,1027.67
2018-12-30T06:08:47.483Z,1027.63
2018-12-30T06:09:47.472Z,1027.57
2018-12-30T06:10:47.461Z,1027.59
2018-12-30T06:11:47.455Z,1027.62
2018-12-30T06:12:47.437Z,1027.65
2018-12-30T06:13:47.431Z,1027.70
2018-12-30T06:14:47.416Z,1027.68
2018-12-30T06:15:47.407Z,1027.72
2018-12-30T06:16:47.401Z,1027.68
2018-12-30T06:17:47.391Z,1027.73
2018-12-30T06:18:47.382Z,1027.77
2018-12-30T06:19:47.372Z,1027.78
2018-12-30T06:20:47.357Z,1027.78
2018-12-30T06:21:47.346Z,1027.74
2018-12-30T06:22:49.614Z,1027.76
2018-12-30T06:23:47.331Z,1027.78
2018-12-30T06:24:47.315Z,1027.69
2018-12-30T06:25:47.306Z,1027.73
2018-12-30T06:26:47.295Z,1027.78
2018-12-30T06:27:47.285Z,1027.82
2018-12-30T06:28:47.281Z,1027.87
2018-12-30T06:29:47.269Z,1027.96
2018-12-30T06:30:47.260Z,1028.02
2018-12-30T06:31:47.250Z,1027.94
2018-12-30T06:32:47.235Z,1027.91
2018-12-30T06:33:47.225Z,1027.88
2018-12-30T06:34:47.214Z,1027.92
2018-12-30T06:35:47.205Z,1027.93
2018-12-30T06:36:47.199Z,1028.00
2018-12-30T06:37:47.189Z,1028.03
2018-12-30T06:38:47.173Z,1028.11
2018-12-30T06:39:47.164Z,1028.14
2018-12-30T06:40:47.159Z,1028.11
2018-12-30T06:41:47.149Z,1028.07
2018-12-30T06:42:47.137Z,1028.04
2018-12-30T06:43:47.128Z,1028.10
2018-12-30T06:44:47.114Z,1028.16
2018-12-30T06:45:47.104Z,1028.15
2018-12-30T06:46:47.092Z,1028.14
2018-12-30T06:47:47.083Z,1028.11
2018-12-30T06:48:47.076Z,1028.14
2018-12-30T06:49:47.068Z,1028.10
2018-12-30T06:50:47.059Z,1028.12
2018-12-30T06:51:47.047Z,1028.08
2018-12-30T06:52:47.031Z,1028.13
2018-12-30T06:53:47.021Z,1028.18
2018-12-30T06:54:47.017Z,1028.31
2018-12-30T06:55:47.007Z,1028.32
2018-12-30T06:56:46.991Z,1028.24
2018-12-30T06:57:46.980Z,1028.25
2018-12-30T06:58:46.972Z,1028.23
2018-12-30T06:59:46.965Z,1028.28
2018-12-30T07:00:46.955Z,1028.31
2018-12-30T07:01:46.945Z,1028.31
2018-12-30T07:02:46.938Z,1028.40
2018-12-30T07:03:46.925Z,1028.41
2018-12-30T07:04:46.908Z,1028.40
2018-12-30T07:05:46.899Z,1028.41
2018-12-30T07:06:46.888Z,1028.39
2018-12-30T07:07:46.880Z,1028.41
2018-12-30T07:08:46.873Z,1028.46
2018-12-30T07:09:46.863Z,1028.49
2018-12-30T07:10:46.848Z,1028.47
2018-12-30T07:11:46.838Z,1028.49
2018-12-30T07:12:46.831Z,1028.54
2018-12-30T07:13:46.821Z,1028.50
2018-12-30T07:14:46.812Z,1028.49
2018-12-30T07:15:46.801Z,1028.45
2018-12-30T07:16:46.786Z,1028.45
2018-12-30T07:17:46.776Z,1028.59
2018-12-30T07:18:46.765Z,1028.53
2018-12-30T07:19:46.757Z,1028.57
2018-12-30T07:20:46.748Z,1028.55
2018-12-30T07:21:46.741Z,1028.54
2018-12-30T07:22:46.730Z,1028.55
2018-12-30T07:23:46.719Z,1028.58
2018-12-30T07:24:46.705Z,1028.62
2018-12-30T07:25:46.744Z,1028.52
2018-12-30T07:26:46.689Z,1028.48
2018-12-30T07:27:46.679Z,1028.47
2018-12-30T07:28:46.664Z,1028.47
2018-12-30T07:29:46.653Z,1028.45
2018-12-30T07:30:46.643Z,1028.51
2018-12-30T07:31:46.632Z,1028.50
2018-12-30T07:32:46.626Z,1028.51
2018-12-30T07:33:46.619Z,1028.60
2018-12-30T07:34:46.605Z,1028.51
2018-12-30T07:35:46.597Z,1028.50
2018-12-30T07:36:46.581Z,1028.52
2018-12-30T07:37:46.570Z,1028.54
2018-12-30T07:38:46.560Z,1028.48
2018-12-30T07:39:46.552Z,1028.50
2018-12-30T07:40:46.545Z,1028.53
2018-12-30T07:41:46.536Z,1028.55
2018-12-30T07:42:46.520Z,1028.56
2018-12-30T07:43:46.515Z,1028.49
2018-12-30T07:44:46.503Z,1028.53
2018-12-30T07:45:46.495Z,1028.51
2018-12-30T07:46:46.482Z,1028.49
2018-12-30T07:47:46.474Z,1028.49
2018-12-30T07:48:46.459Z,1028.48
2018-12-30T07:49:46.448Z,1028.42
2018-12-30T07:50:46.439Z,1028.45
2018-12-30T07:51:46.432Z,1028.48
2018-12-30T07:52:46.422Z,1028.47
2018-12-30T07:53:46.413Z,1028.55
2018-12-30T07:54:46.404Z,1028.58
2018-12-30T07:55:46.391Z,1028.62
2018-12-30T07:56:46.377Z,1028.61
2018-12-30T07:57:46.366Z,1028.57
2018-12-30T07:58:46.362Z,1028.67
2018-12-30T07:59:46.352Z,1028.61
2018-12-30T08:00:46.336Z,1028.59
2018-12-30T08:01:46.327Z,1028.58
2018-12-30T08:02:46.317Z,1028.62
2018-12-30T08:03:46.307Z,1028.66
2018-12-30T08:04:46.300Z,1028.65
2018-12-30T08:05:46.291Z,1028.64
2018-12-30T08:06:46.281Z,1028.71
2018-12-30T08:07:46.270Z,1028.69
2018-12-30T08:08:46.256Z,1028.79
2018-12-30T08:09:46.244Z,1028.76
2018-12-30T08:10:46.847Z,1028.79
2018-12-30T08:11:46.228Z,1028.76
2018-12-30T08:12:46.219Z,1028.77
2018-12-30T08:13:46.209Z,1028.79
2018-12-30T08:14:46.194Z,1028.81
2018-12-30T08:15:46.185Z,1028.84
2018-12-30T08:16:46.179Z,1028.86
2018-12-30T08:17:46.169Z,1028.92
2018-12-30T08:18:46.160Z,1028.87
2018-12-30T08:19:46.150Z,1028.81
2018-12-30T08:20:46.135Z,1028.87
2018-12-30T08:21:46.124Z,1028.86
2018-12-30T08:22:46.115Z,1028.87
2018-12-30T08:23:46.105Z,1028.82
2018-12-30T08:24:46.099Z,1028.83
2018-12-30T08:25:46.090Z,1028.75
2018-12-30T08:26:46.080Z,1028.79
2018-12-30T08:27:46.073Z,1028.75
2018-12-30T08:28:46.055Z,1028.69
2018-12-30T08:29:46.044Z,1028.72
2018-12-30T08:30:46.044Z,1028.73
2018-12-30T08:31:46.029Z,1028.81
2018-12-30T08:32:46.014Z,1028.83
2018-12-30T08:33:46.005Z,1028.83
2018-12-30T08:34:45.996Z,1028.85
2018-12-30T08:35:45.985Z,1028.82
2018-12-30T08:36:45.980Z,1028.82
2018-12-30T08:37:45.981Z,1028.80
2018-12-30T08:38:45.961Z,1028.79
2018-12-30T08:39:46.003Z,1028.73
2018-12-30T08:40:45.936Z,1028.79
2018-12-30T08:41:45.928Z,1028.86
2018-12-30T08:42:45.981Z,1028.85
2018-12-30T08:43:45.909Z,1028.84
2018-12-30T08:44:45.902Z,1028.97
2018-12-30T08:45:45.952Z,1028.90
2018-12-30T08:46:45.879Z,1028.75
2018-12-30T08:47:45.870Z,1028.79
2018-12-30T08:48:45.863Z,1028.86
2018-12-30T08:49:45.856Z,1028.80
2018-12-30T08:50:45.846Z,1028.88
2018-12-30T08:51:45.837Z,1028.86
2018-12-30T08:52:45.822Z,1028.89
2018-12-30T08:53:45.811Z,1028.94
2018-12-30T08:54:45.803Z,1028.95
2018-12-30T08:55:45.797Z,1028.91
2018-12-30T08:56:45.788Z,1028.94
2018-12-30T08:57:45.779Z,1028.97
2018-12-30T08:58:45.771Z,1028.94
2018-12-30T08:59:45.763Z,1028.97
2018-12-30T09:00:45.746Z,1028.98
2018-12-30T09:01:45.737Z,1028.98
2018-12-30T09:02:45.734Z,1028.95
2018-12-30T09:03:45.725Z,1028.88
2018-12-30T09:04:45.711Z,1028.98
2018-12-30T09:05:45.701Z,1028.99
2018-12-30T09:06:45.691Z,1029.03
2018-12-30T09:07:45.684Z,1028.96
2018-12-30T09:08:45.677Z,1029.08
2018-12-30T09:09:45.668Z,1029.09
2018-12-30T09:10:45.662Z,1029.07
2018-12-30T09:11:45.652Z,1029.07
2018-12-30T09:12:45.638Z,1029.03
2018-12-30T09:13:45.631Z,1029.11
2018-12-30T09:14:45.619Z,1029.15
2018-12-30T09:15:45.611Z,1029.15
2018-12-30T09:16:45.608Z,1029.03
2018-12-30T09:17:45.598Z,1028.95
2018-12-30T09:18:45.586Z,1028.94
2018-12-30T09:19:45.577Z,1028.95
2018-12-30T09:20:45.572Z,1028.85
2018-12-30T09:21:45.564Z,1028.87
2018-12-30T09:22:45.555Z,1028.83
2018-12-30T09:23:45.548Z,1028.89
2018-12-30T09:24:45.534Z,1028.82
2018-12-30T09:25:45.527Z,1028.83
2018-12-30T09:26:45.520Z,1028.82
2018-12-30T09:27:45.510Z,1028.86
2018-12-30T09:28:45.506Z,1028.84
2018-12-30T09:29:45.496Z,1028.87
2018-12-30T09:30:45.489Z,1028.99
2018-12-30T09:31:45.483Z,1028.98
2018-12-30T09:32:45.467Z,1029.05
2018-12-30T09:33:45.459Z,1029.07
2018-12-30T09:34:45.457Z,1029.10
2018-12-30T09:35:45.449Z,1029.14
2018-12-30T09:36:45.435Z,1029.21
2018-12-30T09:37:45.428Z,1029.23
2018-12-30T09:38:45.420Z,1029.27
2018-12-30T09:39:45.413Z,1029.27
2018-12-30T09:40:45.409Z,1029.22
2018-12-30T09:41:45.400Z,1029.16
2018-12-30T09:42:45.394Z,1029.11
2018-12-30T09:43:45.385Z,1029.12
2018-12-30T09:44:45.372Z,1029.21
2018-12-30T09:45:45.367Z,1029.29
2018-12-30T09:46:45.359Z,1029.23
2018-12-30T09:47:45.350Z,1029.17
2018-12-30T09:48:45.348Z,1029.17
2018-12-30T09:49:45.341Z,1029.28
2018-12-30T09:50:45.329Z,1029.31
2018-12-30T09:51:45.320Z,1029.36
2018-12-30T09:52:45.318Z,1029.38
2018-12-30T09:53:45.494Z,1029.42
2018-12-30T09:54:45.303Z,1029.44
2018-12-30T09:55:45.295Z,1029.43
2018-12-30T09:56:45.282Z,1029.34
2018-12-30T09:57:45.275Z,1029.28
2018-12-30T09:58:45.268Z,1029.26
2018-12-30T09:59:45.261Z,1029.30
2018-12-30T10:00:45.257Z,1029.33
2018-12-30T10:01:45.250Z,1029.34
2018-12-30T10:02:45.241Z,1029.37
2018-12-30T10:03:45.233Z,1029.40
2018-12-30T10:04:45.220Z,1029.48
2018-12-30T10:05:45.213Z,1029.41
2018-12-30T10:06:45.210Z,1029.40
2018-12-30T10:07:45.204Z,1029.53
2018-12-30T10:08:45.190Z,1029.61
2018-12-30T10:09:45.182Z,1029.67
2018-12-30T10:10:45.176Z,1029.59
2018-12-30T10:11:45.169Z,1029.60
2018-12-30T10:12:45.165Z,1029.61
2018-12-30T10:13:45.158Z,1029.59
2018-12-30T10:14:45.151Z,1029.50
2018-12-30T10:15:45.145Z,1029.53
2018-12-30T10:16:45.134Z,1029.58
2018-12-30T10:17:45.124Z,1029.68
2018-12-30T10:18:45.116Z,1029.70
2018-12-30T10:19:45.109Z,1029.78
2018-12-30T10:20:45.107Z,1029.80
2018-12-30T10:21:45.099Z,1029.83
2018-12-30T10:22:45.089Z,1029.84
2018-12-30T10:23:52.789Z,1029.85
2018-12-30T10:24:45.077Z,1029.84
2018-12-30T10:25:45.071Z,1029.86
2018-12-30T10:26:45.062Z,1029.84
2018-12-30T10:27:45.059Z,1029.84
2018-12-30T10:28:45.043Z,1029.84
2018-12-30T10:29:45.037Z,1029.79
2018-12-30T10:30:45.029Z,1029.77
2018-12-30T10:31:45.021Z,1029.77
2018-12-30T10:32:45.018Z,1029.79
2018-12-30T10:33:45.010Z,1029.77
2018-12-30T10:34:45.002Z,1029.74
2018-12-30T10:35:44.995Z,1029.79
2018-12-30T10:36:44.982Z,1029.80
2018-12-30T10:37:44.976Z,1029.74
2018-12-30T10:38:44.972Z,1029.74
2018-12-30T10:39:44.965Z,1029.70
2018-12-30T10:40:44.952Z,1029.74
2018-12-30T10:41:44.944Z,1029.70
2018-12-30T10:42:44.937Z,1029.71
2018-12-30T10:43:44.931Z,1029.76
2018-12-30T10:44:44.927Z,1029.72
2018-12-30T10:45:44.926Z,1029.71
2018-12-30T10:46:44.912Z,1029.72
2018-12-30T10:47:44.905Z,1029.67
2018-12-30T10:48:44.893Z,1029.66
2018-12-30T10:49:44.884Z,1029.60
2018-12-30T10:50:44.878Z,1029.53
2018-12-30T10:51:44.869Z,1029.56
2018-12-30T10:52:44.866Z,1029.46
2018-12-30T10:53:44.858Z,1029.43
2018-12-30T10:54:44.847Z,1029.42
2018-12-30T10:55:45.778Z,1029.43
2018-12-30T10:56:44.837Z,1029.43
2018-12-30T10:57:44.826Z,1029.45
2018-12-30T10:58:44.820Z,1029.43
2018-12-30T10:59:44.812Z,1029.41
2018-12-30T11:00:44.798Z,1029.38
2018-12-30T11:01:44.792Z,1029.34
2018-12-30T11:02:44.785Z,1029.30
2018-12-30T11:03:44.776Z,1029.34
2018-12-30T11:04:44.772Z,1029.37
2018-12-30T11:05:44.765Z,1029.37
2018-12-30T11:06:44.758Z,1029.31
2018-12-30T11:07:44.752Z,1029.30
2018-12-30T11:08:44.736Z,1029.27
2018-12-30T11:09:44.731Z,1029.26
2018-12-30T11:10:44.727Z,1029.27
2018-12-30T11:11:44.719Z,1029.27
2018-12-30T11:12:44.706Z,1029.34
2018-12-30T11:13:44.698Z,1029.33
2018-12-30T11:14:44.776Z,1029.30
2018-12-30T11:15:44.683Z,1029.32
2018-12-30T11:16:44.679Z,1029.29
2018-12-30T11:17:44.670Z,1029.29
2018-12-30T11:18:44.665Z,1029.24
2018-12-30T11:19:44.654Z,1029.27
2018-12-30T11:20:44.643Z,1029.23
2018-12-30T11:21:44.635Z,1029.28
2018-12-30T11:22:44.627Z,1029.28
2018-12-30T11:23:44.620Z,1029.29
2018-12-30T11:24:44.616Z,1029.27
2018-12-30T11:25:44.610Z,1029.28
2018-12-30T11:26:44.598Z,1029.22
2018-12-30T11:27:44.587Z,1029.23
2018-12-30T11:28:44.584Z,1029.15
2018-12-30T11:29:44.579Z,1029.20
2018-12-30T11:30:44.567Z,1029.23
2018-12-30T11:31:44.560Z,1029.22
2018-12-30T11:32:44.547Z,1029.23
2018-12-30T11:33:44.543Z,1029.16
2018-12-30T11:34:44.530Z,1029.12
2018-12-30T11:35:44.522Z,1029.07
2018-12-30T11:36:44.518Z,1029.11
2018-12-30T11:37:44.511Z,1029.06
2018-12-30T11:38:44.503Z,1029.08
2018-12-30T11:39:44.495Z,1029.09
2018-12-30T11:40:44.482Z,1029.08
2018-12-30T11:41:44.473Z,1029.05
2018-12-30T11:42:44.470Z,1029.04
2018-12-30T11:43:44.462Z,1029.06
2018-12-30T11:44:44.450Z,1029.05
2018-12-30T11:45:44.441Z,1029.07
2018-12-30T11:46:44.433Z,1029.06
2018-12-30T11:47:44.425Z,1029.06
2018-12-30T11:48:44.419Z,1029.03
2018-12-30T11:49:44.413Z,1029.04
2018-12-30T11:50:44.403Z,1029.02
2018-12-30T11:51:44.396Z,1029.07
2018-12-30T11:52:44.381Z,1029.05
2018-12-30T11:53:44.373Z,1029.06
2018-12-30T11:54:44.367Z,1029.07
2018-12-30T11:55:44.358Z,1029.04
2018-12-30T11:56:44.353Z,1029.01
2018-12-30T11:57:44.345Z,1029.02
2018-12-30T11:58:44.332Z,1029.08
2018-12-30T11:59:44.324Z,1029.06
2018-12-30T12:00:44.321Z,1029.03
2018-12-30T12:01:44.313Z,1029.06
2018-12-30T12:02:44.302Z,1029.04
2018-12-30T12:03:44.293Z,1029.04
2018-12-30T12:04:44.281Z,1029.07
2018-12-30T12:05:44.272Z,1029.08